sensor_id;sensor_type;location;lat;lon;timestamp;temperature;humidity
71175;DHT22;58876;51.994;4.472;2023-04-29T00:00:11;10.68;82.09
71175;DHT22;58876;51.994;4.472;2023-04-29T00:02:36;10.74;82.28
71175;DHT22;58876;51.994;4.472;2023-04-29T00:05:02;10.77;82.03
71175;DHT22;58876;51.994;4.472;2023-04-29T00:07:30;10.67;81.61
71175;DHT22;58876;51.994;4.472;2023-04-29T00:09:57;10.67;81.47
71175;DHT22;58876;51.994;4.472;2023-04-29T00:12:22;10.64;81.10
71175;DHT22;58876;51.994;4.472;2023-04-29T00:14:48;10.68;80.97
71175;DHT22;58876;51.994;4.472;2023-04-29T00:17:13;10.54;81.05
71175;DHT22;58876;51.994;4.472;2023-04-29T00:19:40;10.53;81.29
71175;DHT22;58876;51.994;4.472;2023-04-29T00:22:06;10.39;81.25
71175;DHT22;58876;51.994;4.472;2023-04-29T00:24:31;10.47;81.51
71175;DHT22;58876;51.994;4.472;2023-04-29T00:26:56;10.47;81.10
71175;DHT22;58876;51.994;4.472;2023-04-29T00:29:22;10.32;81.61
71175;DHT22;58876;51.994;4.472;2023-04-29T00:31:48;10.29;81.67
71175;DHT22;58876;51.994;4.472;2023-04-29T00:34:13;10.34;82.09
71175;DHT22;58876;51.994;4.472;2023-04-29T00:36:39;10.44;81.50
71175;DHT22;58876;51.994;4.472;2023-04-29T00:39:05;10.30;81.60
71175;DHT22;58876;51.994;4.472;2023-04-29T00:41:31;10.23;81.68
71175;DHT22;58876;51.994;4.472;2023-04-29T00:43:56;10.20;81.63
71175;DHT22;58876;51.994;4.472;2023-04-29T00:46:22;10.23;81.67
71175;DHT22;58876;51.994;4.472;2023-04-29T00:48:48;10.36;81.78
71175;DHT22;58876;51.994;4.472;2023-04-29T00:51:15;10.43;81.59
71175;DHT22;58876;51.994;4.472;2023-04-29T00:53:42;10.28;81.90
71175;DHT22;58876;51.994;4.472;2023-04-29T00:56:08;10.34;82.00
71175;DHT22;58876;51.994;4.472;2023-04-29T00:58:34;10.28;82.39
71175;DHT22;58876;51.994;4.472;2023-04-29T01:01:01;10.36;82.22
71175;DHT22;58876;51.994;4.472;2023-04-29T01:03:29;10.37;82.00
71175;DHT22;58876;51.994;4.472;2023-04-29T01:06:10;10.26;81.64
71175;DHT22;58876;51.994;4.472;2023-04-29T01:11:18;10.23;82.07
71175;DHT22;58876;51.994;4.472;2023-04-29T01:13:57;10.29;81.93
71175;DHT22;58876;51.994;4.472;2023-04-29T01:19:02;10.37;81.61
71175;DHT22;58876;51.994;4.472;2023-04-29T01:21:31;10.39;81.72
71175;DHT22;58876;51.994;4.472;2023-04-29T01:23:57;10.36;81.69
71175;DHT22;58876;51.994;4.472;2023-04-29T01:26:22;10.46;81.42
71175;DHT22;58876;51.994;4.472;2023-04-29T01:29:01;10.61;80.80
71175;DHT22;58876;51.994;4.472;2023-04-29T01:31:35;10.59;80.56
71175;DHT22;58876;51.994;4.472;2023-04-29T01:37:13;10.67;80.19
71175;DHT22;58876;51.994;4.472;2023-04-29T01:39:50;10.47;80.36
71175;DHT22;58876;51.994;4.472;2023-04-29T01:42:32;10.42;80.96
71175;DHT22;58876;51.994;4.472;2023-04-29T01:45:02;10.50;80.93
71175;DHT22;58876;51.994;4.472;2023-04-29T01:47:31;10.51;81.01
71175;DHT22;58876;51.994;4.472;2023-04-29T01:49:57;10.60;80.77
71175;DHT22;58876;51.994;4.472;2023-04-29T01:52:22;10.51;80.83
71175;DHT22;58876;51.994;4.472;2023-04-29T01:54:48;10.47;81.13
71175;DHT22;58876;51.994;4.472;2023-04-29T01:57:13;10.65;80.81
71175;DHT22;58876;51.994;4.472;2023-04-29T01:59:39;10.56;80.41
71175;DHT22;58876;51.994;4.472;2023-04-29T02:02:04;10.57;80.82
71175;DHT22;58876;51.994;4.472;2023-04-29T02:04:29;10.68;80.60
71175;DHT22;58876;51.994;4.472;2023-04-29T02:06:58;10.78;80.33
71175;DHT22;58876;51.994;4.472;2023-04-29T02:09:23;10.71;80.39
71175;DHT22;58876;51.994;4.472;2023-04-29T02:11:49;10.61;81.03
71175;DHT22;58876;51.994;4.472;2023-04-29T02:14:14;10.70;80.94
71175;DHT22;58876;51.994;4.472;2023-04-29T02:16:43;10.71;80.82
71175;DHT22;58876;51.994;4.472;2023-04-29T02:19:08;10.72;80.62
71175;DHT22;58876;51.994;4.472;2023-04-29T02:21:34;10.65;80.93
71175;DHT22;58876;51.994;4.472;2023-04-29T02:23:59;10.61;81.09
71175;DHT22;58876;51.994;4.472;2023-04-29T02:26:25;10.64;81.10
71175;DHT22;58876;51.994;4.472;2023-04-29T02:28:50;10.72;80.75
71175;DHT22;58876;51.994;4.472;2023-04-29T02:31:16;10.72;80.60
71175;DHT22;58876;51.994;4.472;2023-04-29T02:33:42;10.78;79.87
71175;DHT22;58876;51.994;4.472;2023-04-29T02:36:08;10.84;79.71
71175;DHT22;58876;51.994;4.472;2023-04-29T02:38:33;10.88;79.42
71175;DHT22;58876;51.994;4.472;2023-04-29T02:40:58;10.85;79.00
71175;DHT22;58876;51.994;4.472;2023-04-29T02:43:24;10.81;79.12
71175;DHT22;58876;51.994;4.472;2023-04-29T02:45:50;10.84;79.06
71175;DHT22;58876;51.994;4.472;2023-04-29T02:48:16;10.95;78.69
71175;DHT22;58876;51.994;4.472;2023-04-29T02:50:42;10.97;78.48
71175;DHT22;58876;51.994;4.472;2023-04-29T02:53:07;10.97;78.66
71175;DHT22;58876;51.994;4.472;2023-04-29T02:55:33;11.07;78.30
71175;DHT22;58876;51.994;4.472;2023-04-29T02:57:58;11.01;77.95
71175;DHT22;58876;51.994;4.472;2023-04-29T03:00:24;10.97;78.28
71175;DHT22;58876;51.994;4.472;2023-04-29T03:02:49;10.90;78.55
71175;DHT22;58876;51.994;4.472;2023-04-29T03:05:15;10.91;78.87
71175;DHT22;58876;51.994;4.472;2023-04-29T03:07:40;10.90;78.51
71175;DHT22;58876;51.994;4.472;2023-04-29T03:10:06;11.00;78.38
71175;DHT22;58876;51.994;4.472;2023-04-29T03:12:32;10.97;78.44
71175;DHT22;58876;51.994;4.472;2023-04-29T03:14:58;11.00;78.35
71175;DHT22;58876;51.994;4.472;2023-04-29T03:17:24;11.04;78.26
71175;DHT22;58876;51.994;4.472;2023-04-29T03:19:49;11.16;77.98
71175;DHT22;58876;51.994;4.472;2023-04-29T03:22:17;11.19;77.50
71175;DHT22;58876;51.994;4.472;2023-04-29T03:24:42;11.22;77.34
71175;DHT22;58876;51.994;4.472;2023-04-29T03:27:08;11.11;77.70
71175;DHT22;58876;51.994;4.472;2023-04-29T03:29:35;11.09;77.87
71175;DHT22;58876;51.994;4.472;2023-04-29T03:32:00;11.09;78.22
71175;DHT22;58876;51.994;4.472;2023-04-29T03:34:27;11.18;78.17
71175;DHT22;58876;51.994;4.472;2023-04-29T03:36:52;11.26;77.50
71175;DHT22;58876;51.994;4.472;2023-04-29T03:39:18;11.22;77.40
71175;DHT22;58876;51.994;4.472;2023-04-29T03:41:46;11.26;77.42
71175;DHT22;58876;51.994;4.472;2023-04-29T03:44:11;11.19;77.43
71175;DHT22;58876;51.994;4.472;2023-04-29T03:46:37;11.18;77.30
71175;DHT22;58876;51.994;4.472;2023-04-29T03:49:02;11.25;77.27
71175;DHT22;58876;51.994;4.472;2023-04-29T03:51:28;11.29;76.86
71175;DHT22;58876;51.994;4.472;2023-04-29T03:53:54;11.23;76.89
71175;DHT22;58876;51.994;4.472;2023-04-29T03:56:23;11.35;76.83
71175;DHT22;58876;51.994;4.472;2023-04-29T03:58:52;11.33;76.86
71175;DHT22;58876;51.994;4.472;2023-04-29T04:01:17;11.38;76.87
71175;DHT22;58876;51.994;4.472;2023-04-29T04:03:43;11.33;77.06
71175;DHT22;58876;51.994;4.472;2023-04-29T04:06:09;11.36;76.93
71175;DHT22;58876;51.994;4.472;2023-04-29T04:08:34;11.39;77.04
71175;DHT22;58876;51.994;4.472;2023-04-29T04:11:00;11.36;77.00
71175;DHT22;58876;51.994;4.472;2023-04-29T04:13:28;11.36;77.08
71175;DHT22;58876;51.994;4.472;2023-04-29T04:15:53;11.31;77.26
71175;DHT22;58876;51.994;4.472;2023-04-29T04:18:19;11.21;77.63
71175;DHT22;58876;51.994;4.472;2023-04-29T04:20:45;11.32;77.36
71175;DHT22;58876;51.994;4.472;2023-04-29T04:23:11;11.38;77.60
71175;DHT22;58876;51.994;4.472;2023-04-29T04:25:37;11.43;77.38
71175;DHT22;58876;51.994;4.472;2023-04-29T04:28:02;11.42;77.46
71175;DHT22;58876;51.994;4.472;2023-04-29T04:30:28;11.31;77.56
71175;DHT22;58876;51.994;4.472;2023-04-29T04:32:53;11.16;78.49
71175;DHT22;58876;51.994;4.472;2023-04-29T04:35:18;11.19;78.73
71175;DHT22;58876;51.994;4.472;2023-04-29T04:37:44;11.29;78.25
71175;DHT22;58876;51.994;4.472;2023-04-29T04:40:11;11.32;78.19
71175;DHT22;58876;51.994;4.472;2023-04-29T04:42:36;11.36;78.26
71175;DHT22;58876;51.994;4.472;2023-04-29T04:45:02;11.35;78.17
71175;DHT22;58876;51.994;4.472;2023-04-29T04:47:28;11.36;78.25
71175;DHT22;58876;51.994;4.472;2023-04-29T04:49:53;11.25;78.70
71175;DHT22;58876;51.994;4.472;2023-04-29T04:52:20;11.32;78.78
71175;DHT22;58876;51.994;4.472;2023-04-29T04:54:46;11.39;78.99
71175;DHT22;58876;51.994;4.472;2023-04-29T04:57:11;11.25;79.25
71175;DHT22;58876;51.994;4.472;2023-04-29T04:59:37;11.36;79.17
71175;DHT22;58876;51.994;4.472;2023-04-29T05:02:02;11.32;79.37
71175;DHT22;58876;51.994;4.472;2023-04-29T05:04:28;11.39;79.33
71175;DHT22;58876;51.994;4.472;2023-04-29T05:06:53;11.42;79.47
71175;DHT22;58876;51.994;4.472;2023-04-29T05:09:18;11.49;78.80
71175;DHT22;58876;51.994;4.472;2023-04-29T05:11:44;11.40;79.06
71175;DHT22;58876;51.994;4.472;2023-04-29T05:14:10;11.28;79.54
71175;DHT22;58876;51.994;4.472;2023-04-29T05:16:36;11.28;79.99
71175;DHT22;58876;51.994;4.472;2023-04-29T05:19:01;11.31;79.87
71175;DHT22;58876;51.994;4.472;2023-04-29T05:21:27;11.28;80.14
71175;DHT22;58876;51.994;4.472;2023-04-29T05:23:52;11.32;80.07
71175;DHT22;58876;51.994;4.472;2023-04-29T05:26:17;11.38;80.20
71175;DHT22;58876;51.994;4.472;2023-04-29T05:28:43;11.49;79.88
71175;DHT22;58876;51.994;4.472;2023-04-29T05:31:08;11.53;79.58
71175;DHT22;58876;51.994;4.472;2023-04-29T05:33:34;11.56;79.52
71175;DHT22;58876;51.994;4.472;2023-04-29T05:35:59;11.50;79.53
71175;DHT22;58876;51.994;4.472;2023-04-29T05:38:25;11.58;79.45
71175;DHT22;58876;51.994;4.472;2023-04-29T05:40:54;11.69;79.08
71175;DHT22;58876;51.994;4.472;2023-04-29T05:43:20;11.70;78.94
71175;DHT22;58876;51.994;4.472;2023-04-29T05:45:46;11.79;78.64
71175;DHT22;58876;51.994;4.472;2023-04-29T05:48:11;11.89;78.40
71175;DHT22;58876;51.994;4.472;2023-04-29T05:50:37;11.87;78.10
71175;DHT22;58876;51.994;4.472;2023-04-29T05:53:02;11.87;77.92
71175;DHT22;58876;51.994;4.472;2023-04-29T05:55:29;11.90;78.06
71175;DHT22;58876;51.994;4.472;2023-04-29T05:57:55;11.83;77.66
71175;DHT22;58876;51.994;4.472;2023-04-29T06:00:20;11.73;77.90
71175;DHT22;58876;51.994;4.472;2023-04-29T06:02:46;11.62;77.80
71175;DHT22;58876;51.994;4.472;2023-04-29T06:05:11;11.69;77.82
71175;DHT22;58876;51.994;4.472;2023-04-29T06:07:38;11.73;77.43
71175;DHT22;58876;51.994;4.472;2023-04-29T06:10:04;11.74;77.50
71175;DHT22;58876;51.994;4.472;2023-04-29T06:12:30;11.84;77.55
71175;DHT22;58876;51.994;4.472;2023-04-29T06:14:55;11.90;76.98
71175;DHT22;58876;51.994;4.472;2023-04-29T06:17:21;11.98;76.60
71175;DHT22;58876;51.994;4.472;2023-04-29T06:19:46;11.97;76.00
71175;DHT22;58876;51.994;4.472;2023-04-29T06:22:11;12.07;75.75
71175;DHT22;58876;51.994;4.472;2023-04-29T06:24:37;12.14;75.13
71175;DHT22;58876;51.994;4.472;2023-04-29T06:27:02;12.01;75.19
71175;DHT22;58876;51.994;4.472;2023-04-29T06:29:29;12.11;75.02
71175;DHT22;58876;51.994;4.472;2023-04-29T06:31:54;12.14;73.99
71175;DHT22;58876;51.994;4.472;2023-04-29T06:34:20;12.35;73.75
71175;DHT22;58876;51.994;4.472;2023-04-29T06:36:46;12.28;72.81
71175;DHT22;58876;51.994;4.472;2023-04-29T06:39:11;12.41;72.98
71175;DHT22;58876;51.994;4.472;2023-04-29T06:41:37;12.37;71.35
71175;DHT22;58876;51.994;4.472;2023-04-29T06:44:02;12.34;71.91
71175;DHT22;58876;51.994;4.472;2023-04-29T06:46:28;12.41;71.52
71175;DHT22;58876;51.994;4.472;2023-04-29T06:48:53;12.63;70.81
71175;DHT22;58876;51.994;4.472;2023-04-29T06:51:19;12.82;70.11
71175;DHT22;58876;51.994;4.472;2023-04-29T06:53:44;12.97;69.17
71175;DHT22;58876;51.994;4.472;2023-04-29T06:56:11;13.02;68.81
71175;DHT22;58876;51.994;4.472;2023-04-29T06:58:36;13.11;69.07
71175;DHT22;58876;51.994;4.472;2023-04-29T07:01:02;13.24;69.03
71175;DHT22;58876;51.994;4.472;2023-04-29T07:03:29;12.78;70.58
71175;DHT22;58876;51.994;4.472;2023-04-29T07:05:54;12.76;71.47
71175;DHT22;58876;51.994;4.472;2023-04-29T07:08:20;13.23;70.52
71175;DHT22;58876;51.994;4.472;2023-04-29T07:10:53;13.02;68.00
71175;DHT22;58876;51.994;4.472;2023-04-29T07:13:19;12.95;69.00
71175;DHT22;58876;51.994;4.472;2023-04-29T07:15:45;13.04;69.61
71175;DHT22;58876;51.994;4.472;2023-04-29T07:18:10;13.24;69.17
71175;DHT22;58876;51.994;4.472;2023-04-29T07:20:36;13.23;68.96
71175;DHT22;58876;51.994;4.472;2023-04-29T07:23:01;13.46;68.00
71175;DHT22;58876;51.994;4.472;2023-04-29T07:25:27;13.75;66.85
71175;DHT22;58876;51.994;4.472;2023-04-29T07:27:54;13.72;67.56
71175;DHT22;58876;51.994;4.472;2023-04-29T07:30:19;13.65;66.90
71175;DHT22;58876;51.994;4.472;2023-04-29T07:32:45;13.54;67.22
71175;DHT22;58876;51.994;4.472;2023-04-29T07:35:10;13.99;66.81
71175;DHT22;58876;51.994;4.472;2023-04-29T07:37:36;14.64;66.15
71175;DHT22;58876;51.994;4.472;2023-04-29T07:40:01;14.73;63.84
71175;DHT22;58876;51.994;4.472;2023-04-29T07:42:26;14.46;64.11
71175;DHT22;58876;51.994;4.472;2023-04-29T07:44:52;14.84;63.45
71175;DHT22;58876;51.994;4.472;2023-04-29T07:47:17;14.71;64.02
71175;DHT22;58876;51.994;4.472;2023-04-29T07:49:43;15.09;62.63
71175;DHT22;58876;51.994;4.472;2023-04-29T07:52:08;14.96;62.45
71175;DHT22;58876;51.994;4.472;2023-04-29T07:54:37;14.40;64.81
71175;DHT22;58876;51.994;4.472;2023-04-29T07:57:03;13.71;66.08
71175;DHT22;58876;51.994;4.472;2023-04-29T07:59:32;13.57;67.07
71175;DHT22;58876;51.994;4.472;2023-04-29T08:01:57;13.59;67.43
71175;DHT22;58876;51.994;4.472;2023-04-29T08:04:23;13.36;68.59
71175;DHT22;58876;51.994;4.472;2023-04-29T08:06:49;13.99;67.92
71175;DHT22;58876;51.994;4.472;2023-04-29T08:09:15;13.76;67.17
71175;DHT22;58876;51.994;4.472;2023-04-29T08:11:41;13.82;67.61
71175;DHT22;58876;51.994;4.472;2023-04-29T08:14:07;15.21;64.60
71175;DHT22;58876;51.994;4.472;2023-04-29T08:16:33;15.06;64.57
71175;DHT22;58876;51.994;4.472;2023-04-29T08:18:59;14.51;64.92
71175;DHT22;58876;51.994;4.472;2023-04-29T08:21:24;14.19;65.67
71175;DHT22;58876;51.994;4.472;2023-04-29T08:23:52;13.95;67.02
71175;DHT22;58876;51.994;4.472;2023-04-29T08:26:17;13.78;67.02
71175;DHT22;58876;51.994;4.472;2023-04-29T08:28:43;13.43;68.52
71175;DHT22;58876;51.994;4.472;2023-04-29T08:31:15;14.37;66.99
71175;DHT22;58876;51.994;4.472;2023-04-29T08:33:41;15.24;64.14
71175;DHT22;58876;51.994;4.472;2023-04-29T08:36:07;16.71;61.90
71175;DHT22;58876;51.994;4.472;2023-04-29T08:38:32;16.80;58.99
71175;DHT22;58876;51.994;4.472;2023-04-29T08:40:58;16.77;58.64
71175;DHT22;58876;51.994;4.472;2023-04-29T08:43:25;16.10;60.40
71175;DHT22;58876;51.994;4.472;2023-04-29T08:45:51;15.31;61.89
71175;DHT22;58876;51.994;4.472;2023-04-29T08:48:17;14.81;63.64
71175;DHT22;58876;51.994;4.472;2023-04-29T08:50:44;14.36;65.40
71175;DHT22;58876;51.994;4.472;2023-04-29T08:53:12;14.16;66.21
71175;DHT22;58876;51.994;4.472;2023-04-29T08:55:43;14.56;66.63
71175;DHT22;58876;51.994;4.472;2023-04-29T08:58:12;15.42;63.43
71175;DHT22;58876;51.994;4.472;2023-04-29T09:00:39;16.63;60.10
71175;DHT22;58876;51.994;4.472;2023-04-29T09:03:33;17.78;57.34
71175;DHT22;58876;51.994;4.472;2023-04-29T09:06:02;18.14;54.10
71175;DHT22;58876;51.994;4.472;2023-04-29T09:08:29;18.71;54.62
71175;DHT22;58876;51.994;4.472;2023-04-29T09:10:55;17.45;54.40
71175;DHT22;58876;51.994;4.472;2023-04-29T09:13:29;15.98;58.41
71175;DHT22;58876;51.994;4.472;2023-04-29T09:15:54;16.55;59.01
71175;DHT22;58876;51.994;4.472;2023-04-29T09:18:49;16.44;57.56
71175;DHT22;58876;51.994;4.472;2023-04-29T09:21:20;17.44;56.45
71175;DHT22;58876;51.994;4.472;2023-04-29T09:23:48;17.28;53.89
71175;DHT22;58876;51.994;4.472;2023-04-29T09:26:14;15.71;58.71
71175;DHT22;58876;51.994;4.472;2023-04-29T09:28:40;15.64;58.43
71175;DHT22;58876;51.994;4.472;2023-04-29T09:31:10;15.86;59.16
71175;DHT22;58876;51.994;4.472;2023-04-29T09:33:49;15.42;60.14
71175;DHT22;58876;51.994;4.472;2023-04-29T09:39:07;16.18;58.75
71175;DHT22;58876;51.994;4.472;2023-04-29T09:44:09;15.71;59.35
71175;DHT22;58876;51.994;4.472;2023-04-29T09:46:36;16.04;59.51
71175;DHT22;58876;51.994;4.472;2023-04-29T09:49:02;15.96;58.56
71175;DHT22;58876;51.994;4.472;2023-04-29T09:51:31;15.67;60.07
71175;DHT22;58876;51.994;4.472;2023-04-29T09:53:58;15.60;59.57
71175;DHT22;58876;51.994;4.472;2023-04-29T09:56:24;15.53;60.89
71175;DHT22;58876;51.994;4.472;2023-04-29T09:58:53;15.60;60.65
71175;DHT22;58876;51.994;4.472;2023-04-29T10:01:21;15.45;60.81
71175;DHT22;58876;51.994;4.472;2023-04-29T10:03:48;15.94;59.78
71175;DHT22;58876;51.994;4.472;2023-04-29T10:06:16;15.84;59.87
71175;DHT22;58876;51.994;4.472;2023-04-29T10:08:43;16.55;57.20
71175;DHT22;58876;51.994;4.472;2023-04-29T10:11:10;16.56;55.30
71175;DHT22;58876;51.994;4.472;2023-04-29T10:13:37;17.13;56.84
71175;DHT22;58876;51.994;4.472;2023-04-29T10:18:40;16.87;55.64
71175;DHT22;58876;51.994;4.472;2023-04-29T10:21:07;16.76;56.62
71175;DHT22;58876;51.994;4.472;2023-04-29T10:23:36;16.90;56.35
71175;DHT22;58876;51.994;4.472;2023-04-29T10:26:02;16.48;56.73
71175;DHT22;58876;51.994;4.472;2023-04-29T10:28:31;16.34;57.65
71175;DHT22;58876;51.994;4.472;2023-04-29T10:31:00;15.62;58.05
71175;DHT22;58876;51.994;4.472;2023-04-29T10:33:30;15.89;57.45
71175;DHT22;58876;51.994;4.472;2023-04-29T10:35:58;16.71;56.14
71175;DHT22;58876;51.994;4.472;2023-04-29T10:38:36;16.77;54.33
71175;DHT22;58876;51.994;4.472;2023-04-29T10:41:09;16.72;54.62
71175;DHT22;58876;51.994;4.472;2023-04-29T10:43:36;17.30;56.66
71175;DHT22;58876;51.994;4.472;2023-04-29T10:46:22;17.54;53.67
71175;DHT22;58876;51.994;4.472;2023-04-29T10:48:50;17.70;52.13
71175;DHT22;58876;51.994;4.472;2023-04-29T10:51:45;17.79;53.91
71175;DHT22;58876;51.994;4.472;2023-04-29T10:54:15;17.48;52.86
71175;DHT22;58876;51.994;4.472;2023-04-29T10:56:51;17.16;53.04
71175;DHT22;58876;51.994;4.472;2023-04-29T11:02:07;17.13;54.81
71175;DHT22;58876;51.994;4.472;2023-04-29T11:04:33;18.01;53.26
71175;DHT22;58876;51.994;4.472;2023-04-29T11:06:59;18.71;49.95
71175;DHT22;58876;51.994;4.472;2023-04-29T11:09:29;19.43;49.66
71175;DHT22;58876;51.994;4.472;2023-04-29T11:14:27;19.42;48.46
71175;DHT22;58876;51.994;4.472;2023-04-29T11:16:56;18.80;50.11
71175;DHT22;58876;51.994;4.472;2023-04-29T11:19:44;18.30;51.77
71175;DHT22;58876;51.994;4.472;2023-04-29T11:24:50;17.91;52.54
71175;DHT22;58876;51.994;4.472;2023-04-29T11:27:17;17.72;52.63
71175;DHT22;58876;51.994;4.472;2023-04-29T11:29:45;17.31;54.44
71175;DHT22;58876;51.994;4.472;2023-04-29T11:32:11;17.42;53.11
71175;DHT22;58876;51.994;4.472;2023-04-29T11:34:37;18.06;50.45
71175;DHT22;58876;51.994;4.472;2023-04-29T11:37:04;18.59;49.89
71175;DHT22;58876;51.994;4.472;2023-04-29T11:39:33;18.70;48.36
71175;DHT22;58876;51.994;4.472;2023-04-29T11:42:06;18.83;48.11
71175;DHT22;58876;51.994;4.472;2023-04-29T11:44:35;18.22;46.02
71175;DHT22;58876;51.994;4.472;2023-04-29T11:47:04;18.84;48.66
71175;DHT22;58876;51.994;4.472;2023-04-29T11:49:31;19.83;46.78
71175;DHT22;58876;51.994;4.472;2023-04-29T11:51:57;20.11;47.15
71175;DHT22;58876;51.994;4.472;2023-04-29T11:54:27;19.28;49.15
71175;DHT22;58876;51.994;4.472;2023-04-29T11:56:54;18.77;53.36
71175;DHT22;58876;51.994;4.472;2023-04-29T11:59:20;19.04;50.96
71175;DHT22;58876;51.994;4.472;2023-04-29T12:01:47;18.99;50.32
71175;DHT22;58876;51.994;4.472;2023-04-29T12:04:13;19.23;50.19
71175;DHT22;58876;51.994;4.472;2023-04-29T12:06:38;18.81;51.45
71175;DHT22;58876;51.994;4.472;2023-04-29T12:09:04;18.63;52.91
71175;DHT22;58876;51.994;4.472;2023-04-29T12:11:30;18.32;52.88
71175;DHT22;58876;51.994;4.472;2023-04-29T12:13:56;18.78;52.40
71175;DHT22;58876;51.994;4.472;2023-04-29T12:16:22;18.28;52.42
71175;DHT22;58876;51.994;4.472;2023-04-29T12:18:50;18.16;54.43
71175;DHT22;58876;51.994;4.472;2023-04-29T12:21:16;18.14;52.55
71175;DHT22;58876;51.994;4.472;2023-04-29T12:23:41;18.14;52.55
71175;DHT22;58876;51.994;4.472;2023-04-29T12:26:07;18.19;53.22
71175;DHT22;58876;51.994;4.472;2023-04-29T12:28:33;18.06;53.48
71175;DHT22;58876;51.994;4.472;2023-04-29T12:30:59;17.45;56.29
71175;DHT22;58876;51.994;4.472;2023-04-29T12:33:28;17.61;54.76
71175;DHT22;58876;51.994;4.472;2023-04-29T12:35:56;17.54;55.65
71175;DHT22;58876;51.994;4.472;2023-04-29T12:38:25;17.78;54.69
71175;DHT22;58876;51.994;4.472;2023-04-29T12:40:54;17.47;55.79
71175;DHT22;58876;51.994;4.472;2023-04-29T12:43:30;17.34;54.85
71175;DHT22;58876;51.994;4.472;2023-04-29T12:46:02;17.34;55.35
71175;DHT22;58876;51.994;4.472;2023-04-29T12:48:32;17.64;55.14
71175;DHT22;58876;51.994;4.472;2023-04-29T12:50:57;17.78;53.46
71175;DHT22;58876;51.994;4.472;2023-04-29T12:53:25;17.64;55.02
71175;DHT22;58876;51.994;4.472;2023-04-29T12:55:51;17.42;54.95
71175;DHT22;58876;51.994;4.472;2023-04-29T12:58:17;17.34;54.59
71175;DHT22;58876;51.994;4.472;2023-04-29T13:00:42;17.27;54.68
71175;DHT22;58876;51.994;4.472;2023-04-29T13:03:08;17.61;55.00
71175;DHT22;58876;51.994;4.472;2023-04-29T13:05:33;17.44;54.94
71175;DHT22;58876;51.994;4.472;2023-04-29T13:07:59;17.57;54.24
71175;DHT22;58876;51.994;4.472;2023-04-29T13:10:24;17.42;54.98
71175;DHT22;58876;51.994;4.472;2023-04-29T13:12:50;17.57;54.71
71175;DHT22;58876;51.994;4.472;2023-04-29T13:15:16;18.01;54.73
71175;DHT22;58876;51.994;4.472;2023-04-29T13:17:41;18.25;53.43
71175;DHT22;58876;51.994;4.472;2023-04-29T13:20:07;18.09;51.50
71175;DHT22;58876;51.994;4.472;2023-04-29T13:22:34;18.09;52.39
71175;DHT22;58876;51.994;4.472;2023-04-29T13:24:59;17.85;53.23
71175;DHT22;58876;51.994;4.472;2023-04-29T13:27:25;17.83;52.67
71175;DHT22;58876;51.994;4.472;2023-04-29T13:29:50;17.82;53.36
71175;DHT22;58876;51.994;4.472;2023-04-29T13:32:15;18.26;54.52
71175;DHT22;58876;51.994;4.472;2023-04-29T13:34:41;17.81;52.65
71175;DHT22;58876;51.994;4.472;2023-04-29T13:37:08;17.86;53.09
71175;DHT22;58876;51.994;4.472;2023-04-29T13:39:34;17.92;52.52
71175;DHT22;58876;51.994;4.472;2023-04-29T13:42:00;18.02;54.10
71175;DHT22;58876;51.994;4.472;2023-04-29T13:44:26;17.91;52.49
71175;DHT22;58876;51.994;4.472;2023-04-29T13:46:51;17.82;52.37
71175;DHT22;58876;51.994;4.472;2023-04-29T13:49:17;18.02;51.70
71175;DHT22;58876;51.994;4.472;2023-04-29T13:51:42;17.86;53.09
71175;DHT22;58876;51.994;4.472;2023-04-29T13:54:08;18.09;53.38
71175;DHT22;58876;51.994;4.472;2023-04-29T13:56:34;18.34;51.71
71175;DHT22;58876;51.994;4.472;2023-04-29T13:58:59;18.14;51.30
71175;DHT22;58876;51.994;4.472;2023-04-29T14:01:24;17.93;51.68
71175;DHT22;58876;51.994;4.472;2023-04-29T14:03:51;17.99;50.87
71175;DHT22;58876;51.994;4.472;2023-04-29T14:06:17;18.02;51.02
71175;DHT22;58876;51.994;4.472;2023-04-29T14:08:42;18.05;51.64
71175;DHT22;58876;51.994;4.472;2023-04-29T14:11:08;17.99;50.68
71175;DHT22;58876;51.994;4.472;2023-04-29T14:13:33;18.39;51.67
71175;DHT22;58876;51.994;4.472;2023-04-29T14:15:59;18.80;51.34
71175;DHT22;58876;51.994;4.472;2023-04-29T14:18:26;18.91;50.15
71175;DHT22;58876;51.994;4.472;2023-04-29T14:20:51;18.95;49.89
71175;DHT22;58876;51.994;4.472;2023-04-29T14:23:18;18.54;49.42
71175;DHT22;58876;51.994;4.472;2023-04-29T14:25:43;17.96;52.07
71175;DHT22;58876;51.994;4.472;2023-04-29T14:28:09;17.85;51.84
71175;DHT22;58876;51.994;4.472;2023-04-29T14:30:35;18.12;50.94
71175;DHT22;58876;51.994;4.472;2023-04-29T14:33:01;18.57;50.31
71175;DHT22;58876;51.994;4.472;2023-04-29T14:35:26;18.32;49.27
71175;DHT22;58876;51.994;4.472;2023-04-29T14:37:52;17.68;49.25
71175;DHT22;58876;51.994;4.472;2023-04-29T14:40:17;17.52;50.38
71175;DHT22;58876;51.994;4.472;2023-04-29T14:42:42;17.33;51.73
71175;DHT22;58876;51.994;4.472;2023-04-29T14:45:09;17.40;52.31
71175;DHT22;58876;51.994;4.472;2023-04-29T14:47:34;17.72;50.58
71175;DHT22;58876;51.994;4.472;2023-04-29T14:50:00;17.40;51.47
71175;DHT22;58876;51.994;4.472;2023-04-29T14:52:26;17.47;52.23
71175;DHT22;58876;51.994;4.472;2023-04-29T14:54:51;17.96;51.17
71175;DHT22;58876;51.994;4.472;2023-04-29T14:57:17;17.95;50.00
71175;DHT22;58876;51.994;4.472;2023-04-29T14:59:42;18.19;50.26
71175;DHT22;58876;51.994;4.472;2023-04-29T15:02:08;18.50;49.69
71175;DHT22;58876;51.994;4.472;2023-04-29T15:04:34;17.99;48.57
71175;DHT22;58876;51.994;4.472;2023-04-29T15:06:59;17.88;50.98
71175;DHT22;58876;51.994;4.472;2023-04-29T15:09:24;18.08;50.32
71175;DHT22;58876;51.994;4.472;2023-04-29T15:11:51;17.83;50.48
71175;DHT22;58876;51.994;4.472;2023-04-29T15:14:16;17.28;51.04
71175;DHT22;58876;51.994;4.472;2023-04-29T15:16:42;17.34;53.14
71175;DHT22;58876;51.994;4.472;2023-04-29T15:19:07;17.86;50.67
71175;DHT22;58876;51.994;4.472;2023-04-29T15:21:34;17.77;51.52
71175;DHT22;58876;51.994;4.472;2023-04-29T15:23:59;18.29;51.12
71175;DHT22;58876;51.994;4.472;2023-04-29T15:26:25;18.10;50.46
71175;DHT22;58876;51.994;4.472;2023-04-29T15:28:51;17.93;50.86
71175;DHT22;58876;51.994;4.472;2023-04-29T15:31:16;17.92;51.03
71175;DHT22;58876;51.994;4.472;2023-04-29T15:33:42;18.28;50.40
71175;DHT22;58876;51.994;4.472;2023-04-29T15:36:07;18.34;51.56
71175;DHT22;58876;51.994;4.472;2023-04-29T15:38:33;18.02;51.22
71175;DHT22;58876;51.994;4.472;2023-04-29T15:40:58;17.86;51.15
71175;DHT22;58876;51.994;4.472;2023-04-29T15:43:26;18.08;50.25
71175;DHT22;58876;51.994;4.472;2023-04-29T15:45:52;17.68;50.77
71175;DHT22;58876;51.994;4.472;2023-04-29T15:48:18;17.83;51.78
71175;DHT22;58876;51.994;4.472;2023-04-29T15:50:43;18.23;51.46